sensor_id;sensor_type;location;lat;lon;timestamp;pressure;altitude;pressure_sealevel;temperature;humidity
10988;BME280;5547;42.672;23.230;2023-09-08T00:02:46;93776.97;;;16.84;nan
10988;BME280;5547;42.672;23.230;2023-09-08T00:05:46;93801.00;;;17.00;nan
10988;BME280;5547;42.672;23.230;2023-09-08T00:08:46;93820.22;;;17.12;nan
10988;BME280;5547;42.672;23.230;2023-09-08T00:11:47;93816.84;;;16.98;nan
10988;BME280;5547;42.672;23.230;2023-09-08T00:14:47;93819.81;;;17.00;nan
10988;BME280;5547;42.672;23.230;2023-09-08T00:17:47;93816.25;;;17.16;nan
10988;BME280;5547;42.672;23.230;2023-09-08T00:20:48;93814.84;;;17.12;nan
10988;BME280;5547;42.672;23.230;2023-09-08T00:23:48;93800.63;;;16.89;nan
10988;BME280;5547;42.672;23.230;2023-09-08T00:26:48;93806.53;;;16.84;nan
10988;BME280;5547;42.672;23.230;2023-09-08T00:29:49;93788.88;;;16.70;nan
10988;BME280;5547;42.672;23.230;2023-09-08T00:32:49;93807.16;;;17.01;nan
10988;BME280;5547;42.672;23.230;2023-09-08T00:35:49;93804.47;;;16.88;nan
10988;BME280;5547;42.672;23.230;2023-09-08T00:38:50;93812.78;;;16.68;nan
10988;BME280;5547;42.672;23.230;2023-09-08T00:41:50;93802.53;;;16.63;nan
10988;BME280;5547;42.672;23.230;2023-09-08T00:44:51;93785.59;;;16.41;nan
10988;BME280;5547;42.672;23.230;2023-09-08T00:47:51;93807.38;;;16.43;nan
10988;BME280;5547;42.672;23.230;2023-09-08T00:50:51;93770.56;;;16.17;nan
10988;BME280;5547;42.672;23.230;2023-09-08T00:53:53;93744.00;;;15.94;nan
10988;BME280;5547;42.672;23.230;2023-09-08T00:56:55;93794.63;;;16.34;nan
10988;BME280;5547;42.672;23.230;2023-09-08T00:59:57;93786.88;;;16.23;nan
10988;BME280;5547;42.672;23.230;2023-09-08T01:02:58;93766.25;;;16.07;nan
10988;BME280;5547;42.672;23.230;2023-09-08T01:05:59;93802.00;;;16.30;nan
10988;BME280;5547;42.672;23.230;2023-09-08T01:09:00;93802.09;;;16.26;nan
10988;BME280;5547;42.672;23.230;2023-09-08T01:12:03;93796.41;;;16.24;nan
10988;BME280;5547;42.672;23.230;2023-09-08T01:15:06;93773.66;;;16.16;nan
10988;BME280;5547;42.672;23.230;2023-09-08T01:18:07;93803.72;;;16.49;nan
10988;BME280;5547;42.672;23.230;2023-09-08T01:27:55;93792.34;;;16.32;nan
10988;BME280;5547;42.672;23.230;2023-09-08T01:30:57;93786.13;;;16.35;nan
10988;BME280;5547;42.672;23.230;2023-09-08T01:34:00;93718.06;;;15.91;nan
10988;BME280;5547;42.672;23.230;2023-09-08T01:37:01;93765.59;;;16.29;nan
10988;BME280;5547;42.672;23.230;2023-09-08T01:40:04;93671.75;;;15.61;nan
10988;BME280;5547;42.672;23.230;2023-09-08T01:43:05;93772.91;;;16.28;nan
10988;BME280;5547;42.672;23.230;2023-09-08T01:46:05;93774.75;;;16.31;nan
10988;BME280;5547;42.672;23.230;2023-09-08T01:49:06;93770.66;;;16.27;nan
10988;BME280;5547;42.672;23.230;2023-09-08T01:52:06;93774.41;;;16.16;nan
10988;BME280;5547;42.672;23.230;2023-09-08T01:55:07;93735.44;;;15.99;nan
10988;BME280;5547;42.672;23.230;2023-09-08T01:58:08;93758.44;;;16.13;nan
10988;BME280;5547;42.672;23.230;2023-09-08T02:01:08;93769.38;;;16.18;nan
10988;BME280;5547;42.672;23.230;2023-09-08T02:04:08;93765.19;;;16.17;nan
10988;BME280;5547;42.672;23.230;2023-09-08T02:07:09;93717.19;;;15.81;nan
10988;BME280;5547;42.672;23.230;2023-09-08T02:10:09;93774.63;;;16.09;nan
10988;BME280;5547;42.672;23.230;2023-09-08T02:13:11;93731.56;;;15.74;nan
10988;BME280;5547;42.672;23.230;2023-09-08T02:16:14;93775.44;;;15.93;nan
10988;BME280;5547;42.672;23.230;2023-09-08T02:19:15;93769.44;;;15.89;nan
10988;BME280;5547;42.672;23.230;2023-09-08T02:22:15;93680.81;;;15.38;nan
10988;BME280;5547;42.672;23.230;2023-09-08T02:25:16;93713.69;;;15.55;nan
10988;BME280;5547;42.672;23.230;2023-09-08T02:28:17;93701.53;;;15.38;nan
10988;BME280;5547;42.672;23.230;2023-09-08T02:31:17;93751.09;;;15.59;nan
10988;BME280;5547;42.672;23.230;2023-09-08T02:34:18;93718.25;;;15.42;nan
10988;BME280;5547;42.672;23.230;2023-09-08T02:37:18;93694.94;;;15.26;nan
10988;BME280;5547;42.672;23.230;2023-09-08T02:40:19;93748.75;;;15.61;nan
10988;BME280;5547;42.672;23.230;2023-09-08T02:43:20;93720.19;;;15.41;nan
10988;BME280;5547;42.672;23.230;2023-09-08T02:46:21;93719.09;;;15.39;nan
10988;BME280;5547;42.672;23.230;2023-09-08T02:49:21;93746.00;;;15.35;nan
10988;BME280;5547;42.672;23.230;2023-09-08T02:52:22;93730.13;;;15.28;nan
10988;BME280;5547;42.672;23.230;2023-09-08T02:55:22;93750.16;;;15.23;nan
10988;BME280;5547;42.672;23.230;2023-09-08T02:58:22;93740.38;;;15.17;nan
10988;BME280;5547;42.672;23.230;2023-09-08T03:01:23;93741.84;;;15.18;nan
10988;BME280;5547;42.672;23.230;2023-09-08T03:04:24;93734.44;;;15.09;nan
10988;BME280;5547;42.672;23.230;2023-09-08T03:07:24;93722.09;;;14.82;nan
10988;BME280;5547;42.672;23.230;2023-09-08T03:10:24;93747.59;;;15.03;nan
10988;BME280;5547;42.672;23.230;2023-09-08T03:13:25;93742.41;;;14.96;nan
10988;BME280;5547;42.672;23.230;2023-09-08T03:16:26;93745.75;;;15.00;nan
10988;BME280;5547;42.672;23.230;2023-09-08T03:19:26;93750.09;;;14.94;nan
10988;BME280;5547;42.672;23.230;2023-09-08T03:22:27;93740.91;;;14.79;nan
10988;BME280;5547;42.672;23.230;2023-09-08T03:25:27;93723.88;;;14.56;nan
10988;BME280;5547;42.672;23.230;2023-09-08T03:28:28;93741.09;;;14.55;nan
10988;BME280;5547;42.672;23.230;2023-09-08T03:31:28;93766.88;;;14.65;nan
10988;BME280;5547;42.672;23.230;2023-09-08T03:34:28;93704.28;;;14.10;nan
10988;BME280;5547;42.672;23.230;2023-09-08T03:37:29;93754.88;;;14.37;nan
10988;BME280;5547;42.672;23.230;2023-09-08T03:40:29;93767.66;;;14.46;nan
10988;BME280;5547;42.672;23.230;2023-09-08T03:43:30;93697.56;;;13.85;nan
10988;BME280;5547;42.672;23.230;2023-09-08T03:46:30;93736.25;;;13.97;nan
10988;BME280;5547;42.672;23.230;2023-09-08T03:49:30;93774.59;;;13.91;nan
10988;BME280;5547;42.672;23.230;2023-09-08T03:52:31;93772.41;;;13.85;nan
10988;BME280;5547;42.672;23.230;2023-09-08T03:55:31;93733.41;;;13.52;nan
10988;BME280;5547;42.672;23.230;2023-09-08T03:58:32;93775.72;;;13.73;nan
10988;BME280;5547;42.672;23.230;2023-09-08T04:01:32;93774.88;;;13.76;nan
10988;BME280;5547;42.672;23.230;2023-09-08T04:04:34;93757.97;;;13.63;nan
10988;BME280;5547;42.672;23.230;2023-09-08T04:07:34;93779.03;;;13.61;nan
10988;BME280;5547;42.672;23.230;2023-09-08T04:10:34;93765.47;;;13.52;nan
10988;BME280;5547;42.672;23.230;2023-09-08T04:13:35;93773.41;;;13.55;nan
10988;BME280;5547;42.672;23.230;2023-09-08T04:16:35;93723.00;;;13.14;nan
10988;BME280;5547;42.672;23.230;2023-09-08T04:19:37;93779.72;;;13.45;nan
10988;BME280;5547;42.672;23.230;2023-09-08T04:22:42;93737.75;;;13.22;nan
10988;BME280;5547;42.672;23.230;2023-09-08T04:25:43;93776.88;;;13.32;nan
10988;BME280;5547;42.672;23.230;2023-09-08T04:28:43;93784.72;;;13.43;nan
10988;BME280;5547;42.672;23.230;2023-09-08T04:31:44;93761.69;;;13.25;nan
10988;BME280;5547;42.672;23.230;2023-09-08T04:34:44;93782.59;;;13.54;nan
10988;BME280;5547;42.672;23.230;2023-09-08T04:37:48;93782.09;;;13.59;nan
10988;BME280;5547;42.672;23.230;2023-09-08T04:40:48;93781.22;;;13.66;nan
10988;BME280;5547;42.672;23.230;2023-09-08T04:43:49;93750.56;;;13.71;nan
10988;BME280;5547;42.672;23.230;2023-09-08T04:46:51;93792.31;;;14.21;nan
10988;BME280;5547;42.672;23.230;2023-09-08T04:49:51;93791.91;;;14.39;nan
10988;BME280;5547;42.672;23.230;2023-09-08T04:52:51;93787.94;;;14.47;nan
10988;BME280;5547;42.672;23.230;2023-09-08T04:55:52;93788.13;;;14.56;nan
10988;BME280;5547;42.672;23.230;2023-09-08T04:58:52;93755.16;;;14.59;nan
10988;BME280;5547;42.672;23.230;2023-09-08T05:01:55;93770.03;;;14.93;nan
10988;BME280;5547;42.672;23.230;2023-09-08T05:04:55;93757.97;;;15.01;nan
10988;BME280;5547;42.672;23.230;2023-09-08T05:07:55;93766.97;;;15.24;nan
10988;BME280;5547;42.672;23.230;2023-09-08T05:10:56;93791.56;;;15.64;nan
10988;BME280;5547;42.672;23.230;2023-09-08T05:13:56;93793.91;;;15.91;nan
10988;BME280;5547;42.672;23.230;2023-09-08T05:16:58;93797.91;;;16.00;nan
10988;BME280;5547;42.672;23.230;2023-09-08T05:19:58;93778.59;;;16.05;nan
10988;BME280;5547;42.672;23.230;2023-09-08T05:22:58;93778.38;;;16.12;nan
10988;BME280;5547;42.672;23.230;2023-09-08T05:26:00;93781.63;;;16.32;nan
10988;BME280;5547;42.672;23.230;2023-09-08T05:29:00;93753.59;;;16.21;nan
10988;BME280;5547;42.672;23.230;2023-09-08T05:32:00;93805.97;;;16.76;nan
10988;BME280;5547;42.672;23.230;2023-09-08T05:35:01;93812.53;;;16.75;nan
10988;BME280;5547;42.672;23.230;2023-09-08T05:38:01;93798.91;;;16.83;nan
10988;BME280;5547;42.672;23.230;2023-09-08T05:41:02;93770.41;;;16.72;nan
10988;BME280;5547;42.672;23.230;2023-09-08T05:44:03;93796.28;;;17.05;nan
10988;BME280;5547;42.672;23.230;2023-09-08T05:47:03;93779.88;;;16.90;nan
10988;BME280;5547;42.672;23.230;2023-09-08T05:50:04;93780.59;;;17.03;nan
10988;BME280;5547;42.672;23.230;2023-09-08T05:53:05;93814.84;;;17.25;nan
10988;BME280;5547;42.672;23.230;2023-09-08T05:56:06;93816.00;;;17.36;nan
10988;BME280;5547;42.672;23.230;2023-09-08T05:59:06;93783.38;;;17.12;nan
10988;BME280;5547;42.672;23.230;2023-09-08T06:02:07;93773.06;;;17.11;nan
10988;BME280;5547;42.672;23.230;2023-09-08T06:05:07;93793.53;;;17.30;nan
10988;BME280;5547;42.672;23.230;2023-09-08T06:08:08;93824.38;;;17.60;nan
10988;BME280;5547;42.672;23.230;2023-09-08T06:11:08;93814.50;;;17.57;nan
10988;BME280;5547;42.672;23.230;2023-09-08T06:14:09;93822.41;;;17.74;nan
10988;BME280;5547;42.672;23.230;2023-09-08T06:17:10;93824.94;;;17.90;nan
10988;BME280;5547;42.672;23.230;2023-09-08T06:20:11;93829.19;;;18.00;nan
10988;BME280;5547;42.672;23.230;2023-09-08T06:23:12;93807.72;;;18.10;nan
10988;BME280;5547;42.672;23.230;2023-09-08T06:26:12;93840.06;;;18.50;nan
10988;BME280;5547;42.672;23.230;2023-09-08T06:29:12;93830.38;;;18.53;nan
10988;BME280;5547;42.672;23.230;2023-09-08T06:32:13;93814.78;;;18.47;nan
10988;BME280;5547;42.672;23.230;2023-09-08T06:35:13;93825.31;;;18.64;nan
10988;BME280;5547;42.672;23.230;2023-09-08T06:38:14;93819.91;;;18.86;nan
10988;BME280;5547;42.672;23.230;2023-09-08T06:41:14;93849.34;;;19.21;nan
10988;BME280;5547;42.672;23.230;2023-09-08T06:44:14;93858.50;;;19.42;nan
10988;BME280;5547;42.672;23.230;2023-09-08T06:47:15;93859.56;;;19.44;nan
10988;BME280;5547;42.672;23.230;2023-09-08T06:50:16;93853.72;;;19.55;nan
10988;BME280;5547;42.672;23.230;2023-09-08T06:53:16;93866.03;;;19.65;nan
10988;BME280;5547;42.672;23.230;2023-09-08T06:56:17;93865.75;;;19.72;nan
10988;BME280;5547;42.672;23.230;2023-09-08T06:59:17;93865.91;;;19.87;nan
10988;BME280;5547;42.672;23.230;2023-09-08T07:02:18;93830.19;;;19.65;nan
10988;BME280;5547;42.672;23.230;2023-09-08T07:05:18;93843.72;;;19.74;nan
10988;BME280;5547;42.672;23.230;2023-09-08T07:08:19;93867.53;;;19.94;nan
10988;BME280;5547;42.672;23.230;2023-09-08T07:11:19;93831.56;;;19.97;nan
10988;BME280;5547;42.672;23.230;2023-09-08T07:14:19;93837.25;;;19.99;nan
10988;BME280;5547;42.672;23.230;2023-09-08T07:17:20;93827.00;;;20.12;nan
10988;BME280;5547;42.672;23.230;2023-09-08T07:20:22;93869.03;;;20.23;nan
10988;BME280;5547;42.672;23.230;2023-09-08T07:23:22;93850.13;;;20.13;nan
10988;BME280;5547;42.672;23.230;2023-09-08T07:26:22;93871.00;;;20.13;nan
10988;BME280;5547;42.672;23.230;2023-09-08T07:29:23;93849.50;;;20.28;nan
10988;BME280;5547;42.672;23.230;2023-09-08T07:32:23;93841.72;;;20.11;nan
10988;BME280;5547;42.672;23.230;2023-09-08T07:35:24;93849.31;;;20.59;nan
10988;BME280;5547;42.672;23.230;2023-09-08T07:38:25;93852.03;;;20.92;nan
10988;BME280;5547;42.672;23.230;2023-09-08T07:41:25;93864.13;;;21.06;nan
10988;BME280;5547;42.672;23.230;2023-09-08T07:44:26;93867.91;;;20.99;nan
10988;BME280;5547;42.672;23.230;2023-09-08T07:47:26;93845.34;;;21.03;nan
10988;BME280;5547;42.672;23.230;2023-09-08T07:50:28;93821.34;;;20.95;nan
10988;BME280;5547;42.672;23.230;2023-09-08T07:53:28;93839.97;;;21.27;nan
10988;BME280;5547;42.672;23.230;2023-09-08T07:56:29;93867.69;;;21.46;nan
10988;BME280;5547;42.672;23.230;2023-09-08T07:59:29;93835.88;;;21.07;nan
10988;BME280;5547;42.672;23.230;2023-09-08T08:02:30;93870.41;;;21.12;nan
10988;BME280;5547;42.672;23.230;2023-09-08T08:05:31;93829.72;;;21.07;nan
10988;BME280;5547;42.672;23.230;2023-09-08T08:08:32;93863.53;;;21.35;nan
10988;BME280;5547;42.672;23.230;2023-09-08T08:11:32;93835.16;;;20.97;nan
10988;BME280;5547;42.672;23.230;2023-09-08T08:14:33;93858.88;;;21.03;nan
10988;BME280;5547;42.672;23.230;2023-09-08T08:17:33;93828.13;;;20.91;nan
10988;BME280;5547;42.672;23.230;2023-09-08T08:20:34;93861.94;;;21.77;nan
10988;BME280;5547;42.672;23.230;2023-09-08T08:23:35;93844.84;;;21.86;nan
10988;BME280;5547;42.672;23.230;2023-09-08T08:26:36;93864.28;;;21.60;nan
10988;BME280;5547;42.672;23.230;2023-09-08T08:29:36;93851.97;;;21.98;nan
10988;BME280;5547;42.672;23.230;2023-09-08T08:32:37;93858.72;;;22.17;nan
10988;BME280;5547;42.672;23.230;2023-09-08T08:35:37;93855.00;;;22.30;nan
10988;BME280;5547;42.672;23.230;2023-09-08T08:38:38;93852.84;;;22.34;nan
10988;BME280;5547;42.672;23.230;2023-09-08T08:41:38;93839.91;;;21.99;nan
10988;BME280;5547;42.672;23.230;2023-09-08T08:44:41;93843.47;;;22.05;nan
10988;BME280;5547;42.672;23.230;2023-09-08T08:47:42;93848.53;;;22.12;nan
10988;BME280;5547;42.672;23.230;2023-09-08T08:50:43;93835.81;;;21.89;nan
10988;BME280;5547;42.672;23.230;2023-09-08T08:53:44;93842.63;;;21.84;nan
10988;BME280;5547;42.672;23.230;2023-09-08T08:56:44;93833.91;;;21.65;nan
10988;BME280;5547;42.672;23.230;2023-09-08T08:59:45;93810.56;;;21.82;nan
10988;BME280;5547;42.672;23.230;2023-09-08T09:02:47;93839.28;;;22.19;nan
10988;BME280;5547;42.672;23.230;2023-09-08T09:05:49;93834.84;;;22.31;nan
10988;BME280;5547;42.672;23.230;2023-09-08T09:08:49;93843.72;;;22.46;nan
10988;BME280;5547;42.672;23.230;2023-09-08T09:11:50;93827.88;;;22.74;nan
10988;BME280;5547;42.672;23.230;2023-09-08T09:14:54;93801.91;;;22.53;nan
10988;BME280;5547;42.672;23.230;2023-09-08T09:18:02;93810.38;;;22.75;nan
10988;BME280;5547;42.672;23.230;2023-09-08T09:21:04;93835.69;;;22.37;nan
10988;BME280;5547;42.672;23.230;2023-09-08T09:24:05;93836.41;;;22.22;nan
10988;BME280;5547;42.672;23.230;2023-09-08T09:27:05;93835.97;;;21.85;nan
10988;BME280;5547;42.672;23.230;2023-09-08T09:30:07;93823.63;;;21.69;nan
10988;BME280;5547;42.672;23.230;2023-09-08T09:33:07;93736.69;;;20.89;nan
10988;BME280;5547;42.672;23.230;2023-09-08T09:36:08;93816.91;;;21.40;nan
10988;BME280;5547;42.672;23.230;2023-09-08T09:39:09;93833.19;;;21.55;nan
10988;BME280;5547;42.672;23.230;2023-09-08T09:42:10;93790.91;;;21.43;nan
10988;BME280;5547;42.672;23.230;2023-09-08T09:45:10;93827.78;;;21.94;nan
10988;BME280;5547;42.672;23.230;2023-09-08T09:48:11;93794.34;;;21.82;nan
10988;BME280;5547;42.672;23.230;2023-09-08T09:51:16;93821.25;;;21.86;nan
10988;BME280;5547;42.672;23.230;2023-09-08T09:54:19;93784.72;;;21.96;nan
10988;BME280;5547;42.672;23.230;2023-09-08T09:57:21;93817.91;;;22.36;nan
10988;BME280;5547;42.672;23.230;2023-09-08T10:00:22;93818.75;;;22.42;nan
10988;BME280;5547;42.672;23.230;2023-09-08T10:03:23;93802.97;;;22.26;nan
10988;BME280;5547;42.672;23.230;2023-09-08T10:06:25;93806.09;;;21.94;nan
10988;BME280;5547;42.672;23.230;2023-09-08T10:09:26;93771.00;;;22.00;nan
10988;BME280;5547;42.672;23.230;2023-09-08T10:12:26;93808.47;;;22.31;nan
10988;BME280;5547;42.672;23.230;2023-09-08T10:15:32;93811.47;;;22.18;nan
10988;BME280;5547;42.672;23.230;2023-09-08T10:18:33;93797.28;;;22.23;nan
10988;BME280;5547;42.672;23.230;2023-09-08T10:21:39;93716.94;;;21.37;nan
10988;BME280;5547;42.672;23.230;2023-09-08T10:24:40;93783.75;;;21.31;nan
10988;BME280;5547;42.672;23.230;2023-09-08T10:27:44;93797.25;;;21.40;nan
10988;BME280;5547;42.672;23.230;2023-09-08T10:30:45;93785.38;;;21.91;nan
10988;BME280;5547;42.672;23.230;2023-09-08T10:33:46;93742.44;;;21.84;nan
10988;BME280;5547;42.672;23.230;2023-09-08T10:36:46;93792.19;;;22.01;nan
10988;BME280;5547;42.672;23.230;2023-09-08T10:39:47;93719.25;;;21.68;nan
10988;BME280;5547;42.672;23.230;2023-09-08T10:42:48;93785.19;;;22.54;nan
10988;BME280;5547;42.672;23.230;2023-09-08T10:45:48;93772.66;;;22.57;nan
10988;BME280;5547;42.672;23.230;2023-09-08T10:48:49;93782.28;;;22.13;nan
10988;BME280;5547;42.672;23.230;2023-09-08T10:51:49;93771.84;;;22.06;nan
10988;BME280;5547;42.672;23.230;2023-09-08T10:54:51;93756.06;;;21.90;nan
10988;BME280;5547;42.672;23.230;2023-09-08T10:57:54;93781.56;;;21.98;nan
10988;BME280;5547;42.672;23.230;2023-09-08T11:00:59;93779.38;;;21.72;nan
10988;BME280;5547;42.672;23.230;2023-09-08T11:04:04;93761.88;;;21.97;nan
10988;BME280;5547;42.672;23.230;2023-09-08T11:07:08;93665.81;;;21.24;nan
10988;BME280;5547;42.672;23.230;2023-09-08T11:10:10;93779.19;;;22.20;nan
10988;BME280;5547;42.672;23.230;2023-09-08T11:13:11;93740.72;;;22.01;nan
10988;BME280;5547;42.672;23.230;2023-09-08T11:16:13;93725.13;;;22.11;nan
10988;BME280;5547;42.672;23.230;2023-09-08T11:19:13;93759.72;;;22.31;nan
10988;BME280;5547;42.672;23.230;2023-09-08T11:22:14;93759.59;;;22.40;nan
10988;BME280;5547;42.672;23.230;2023-09-08T11:25:15;93738.38;;;22.39;nan
10988;BME280;5547;42.672;23.230;2023-09-08T11:28:16;93747.28;;;22.39;nan
10988;BME280;5547;42.672;23.230;2023-09-08T11:31:16;93769.56;;;22.64;nan
10988;BME280;5547;42.672;23.230;2023-09-08T11:34:17;93721.59;;;22.35;nan
10988;BME280;5547;42.672;23.230;2023-09-08T11:37:18;93758.59;;;22.73;nan
10988;BME280;5547;42.672;23.230;2023-09-08T11:40:18;93745.47;;;22.51;nan
10988;BME280;5547;42.672;23.230;2023-09-08T11:43:20;93727.00;;;22.35;nan
10988;BME280;5547;42.672;23.230;2023-09-08T11:46:21;93748.69;;;22.70;nan
10988;BME280;5547;42.672;23.230;2023-09-08T11:49:21;93750.88;;;23.01;nan
10988;BME280;5547;42.672;23.230;2023-09-08T11:52:23;93728.19;;;22.84;nan
10988;BME280;5547;42.672;23.230;2023-09-08T11:55:24;93742.84;;;22.92;nan
10988;BME280;5547;42.672;23.230;2023-09-08T11:58:25;93744.72;;;22.86;nan
10988;BME280;5547;42.672;23.230;2023-09-08T12:01:26;93741.25;;;22.65;nan
10988;BME280;5547;42.672;23.230;2023-09-08T12:04:27;93733.97;;;23.12;nan
10988;BME280;5547;42.672;23.230;2023-09-08T12:07:28;93738.75;;;22.82;nan
10988;BME280;5547;42.672;23.230;2023-09-08T12:10:28;93741.47;;;22.82;nan
10988;BME280;5547;42.672;23.230;2023-09-08T12:13:29;93740.13;;;22.92;nan
10988;BME280;5547;42.672;23.230;2023-09-08T12:16:29;93698.34;;;22.84;nan
10988;BME280;5547;42.672;23.230;2023-09-08T12:19:31;93743.34;;;23.11;nan
10988;BME280;5547;42.672;23.230;2023-09-08T12:22:32;93718.47;;;22.77;nan
10988;BME280;5547;42.672;23.230;2023-09-08T12:25:33;93724.22;;;23.20;nan
10988;BME280;5547;42.672;23.230;2023-09-08T12:28:35;93704.94;;;22.98;nan
10988;BME280;5547;42.672;23.230;2023-09-08T12:31:35;93716.25;;;22.96;nan
10988;BME280;5547;42.672;23.230;2023-09-08T12:34:35;93684.50;;;22.82;nan
10988;BME280;5547;42.672;23.230;2023-09-08T12:37:38;93672.84;;;22.96;nan
10988;BME280;5547;42.672;23.230;2023-09-08T12:40:38;93715.78;;;23.65;nan
10988;BME280;5547;42.672;23.230;2023-09-08T12:43:39;93679.66;;;23.53;nan
10988;BME280;5547;42.672;23.230;2023-09-08T12:46:39;93724.25;;;23.73;nan
10988;BME280;5547;42.672;23.230;2023-09-08T12:49:40;93702.34;;;23.76;nan
10988;BME280;5547;42.672;23.230;2023-09-08T12:52:40;93683.22;;;23.39;nan
10988;BME280;5547;42.672;23.230;2023-09-08T12:55:40;93710.91;;;23.69;nan
10988;BME280;5547;42.672;23.230;2023-09-08T12:58:41;93551.53;;;22.30;nan
10988;BME280;5547;42.672;23.230;2023-09-08T13:01:41;93700.13;;;23.28;nan
10988;BME280;5547;42.672;23.230;2023-09-08T13:04:42;93643.00;;;22.76;nan
10988;BME280;5547;42.672;23.230;2023-09-08T13:07:48;93697.81;;;23.21;nan
10988;BME280;5547;42.672;23.230;2023-09-08T13:10:48;93693.88;;;23.22;nan
10988;BME280;5547;42.672;23.230;2023-09-08T13:13:49;93696.72;;;23.13;nan
10988;BME280;5547;42.672;23.230;2023-09-08T13:16:49;93705.41;;;23.63;nan
10988;BME280;5547;42.672;23.230;2023-09-08T13:19:50;93705.16;;;23.87;nan
10988;BME280;5547;42.672;23.230;2023-09-08T13:22:50;93711.50;;;24.42;nan
10988;BME280;5547;42.672;23.230;2023-09-08T13:25:50;93696.63;;;24.00;nan
10988;BME280;5547;42.672;23.230;2023-09-08T13:28:51;93677.06;;;23.18;nan
10988;BME280;5547;42.672;23.230;2023-09-08T13:31:54;93681.66;;;22.71;nan
10988;BME280;5547;42.672;23.230;2023-09-08T13:34:55;93711.88;;;22.63;nan
10988;BME280;5547;42.672;23.230;2023-09-08T13:37:55;93694.44;;;22.50;nan
10988;BME280;5547;42.672;23.230;2023-09-08T13:40:55;93681.09;;;22.46;nan
10988;BME280;5547;42.672;23.230;2023-09-08T13:43:56;93724.59;;;22.57;nan
10988;BME280;5547;42.672;23.230;2023-09-08T13:46:59;93691.16;;;22.60;nan
10988;BME280;5547;42.672;23.230;2023-09-08T13:49:59;93707.53;;;22.51;nan
10988;BME280;5547;42.672;23.230;2023-09-08T13:53:00;93706.69;;;22.45;nan
10988;BME280;5547;42.672;23.230;2023-09-08T13:56:00;93671.97;;;22.29;nan
10988;BME280;5547;42.672;23.230;2023-09-08T13:59:01;93687.28;;;22.32;nan
10988;BME280;5547;42.672;23.230;2023-09-08T14:02:02;93699.25;;;22.40;nan
10988;BME280;5547;42.672;23.230;2023-09-08T14:05:04;93704.69;;;22.25;nan
10988;BME280;5547;42.672;23.230;2023-09-08T14:08:05;93687.44;;;21.93;nan
10988;BME280;5547;42.672;23.230;2023-09-08T14:11:05;93677.81;;;21.77;nan
10988;BME280;5547;42.672;23.230;2023-09-08T14:14:06;93700.22;;;22.07;nan
10988;BME280;5547;42.672;23.230;2023-09-08T14:17:06;93701.22;;;21.95;nan
10988;BME280;5547;42.672;23.230;2023-09-08T14:20:07;93618.00;;;21.45;nan
10988;BME280;5547;42.672;23.230;2023-09-08T14:23:08;93691.25;;;22.01;nan
10988;BME280;5547;42.672;23.230;2023-09-08T14:26:08;93616.38;;;21.38;nan
10988;BME280;5547;42.672;23.230;2023-09-08T14:29:09;93653.06;;;21.69;nan
10988;BME280;5547;42.672;23.230;2023-09-08T14:32:09;93695.44;;;22.17;nan
10988;BME280;5547;42.672;23.230;2023-09-08T14:35:10;93687.88;;;22.06;nan
10988;BME280;5547;42.672;23.230;2023-09-08T14:38:10;93700.22;;;22.22;nan
10988;BME280;5547;42.672;23.230;2023-09-08T14:41:11;93639.53;;;21.69;nan
10988;BME280;5547;42.672;23.230;2023-09-08T14:44:11;93672.59;;;21.88;nan
10988;BME280;5547;42.672;23.230;2023-09-08T14:47:11;93685.06;;;22.15;nan
10988;BME280;5547;42.672;23.230;2023-09-08T14:50:12;93622.00;;;21.79;nan
10988;BME280;5547;42.672;23.230;2023-09-08T14:53:14;93688.31;;;22.34;nan
10988;BME280;5547;42.672;23.230;2023-09-08T14:56:14;93641.19;;;21.96;nan
10988;BME280;5547;42.672;23.230;2023-09-08T14:59:14;93651.06;;;21.99;nan
10988;BME280;5547;42.672;23.230;2023-09-08T15:02:15;93685.34;;;22.17;nan
10988;BME280;5547;42.672;23.230;2023-09-08T15:05:15;93660.00;;;22.20;nan
10988;BME280;5547;42.672;23.230;2023-09-08T15:08:16;93680.31;;;22.60;nan
10988;BME280;5547;42.672;23.230;2023-09-08T15:11:16;93672.38;;;22.21;nan
10988;BME280;5547;42.672;23.230;2023-09-08T15:14:16;93682.16;;;22.04;nan
10988;BME280;5547;42.672;23.230;2023-09-08T15:17:17;93690.22;;;21.98;nan
10988;BME280;5547;42.672;23.230;2023-09-08T15:20:18;93681.91;;;21.87;nan
10988;BME280;5547;42.672;23.230;2023-09-08T15:23:18;93671.94;;;21.78;nan
10988;BME280;5547;42.672;23.230;2023-09-08T15:26:19;93645.91;;;21.66;nan
10988;BME280;5547;42.672;23.230;2023-09-08T15:29:19;93672.22;;;21.80;nan
10988;BME280;5547;42.672;23.230;2023-09-08T15:32:20;93666.97;;;21.62;nan
10988;BME280;5547;42.672;23.230;2023-09-08T15:35:20;93668.94;;;21.61;nan
10988;BME280;5547;42.672;23.230;2023-09-08T15:38:22;93672.41;;;21.62;nan
10988;BME280;5547;42.672;23.230;2023-09-08T15:41:22;93673.91;;;21.63;nan
10988;BME280;5547;42.672;23.230;2023-09-08T15:44:23;93673.06;;;21.42;nan
10988;BME280;5547;42.672;23.230;2023-09-08T15:47:23;93659.47;;;21.27;nan
10988;BME280;5547;42.672;23.230;2023-09-08T15:50:24;93672.06;;;21.30;nan
10988;BME280;5547;42.672;23.230;2023-09-08T15:53:24;93662.44;;;21.14;nan
10988;BME280;5547;42.672;23.230;2023-09-08T15:56:25;93669.50;;;21.12;nan
10988;BME280;5547;42.672;23.230;2023-09-08T15:59:25;93665.31;;;20.96;nan
10988;BME280;5547;42.672;23.230;2023-09-08T16:02:25;93674.38;;;21.08;nan
10988;BME280;5547;42.672;23.230;2023-09-08T16:05:26;93621.97;;;20.66;nan
10988;BME280;5547;42.672;23.230;2023-09-08T16:08:26;93656.28;;;20.75;nan
10988;BME280;5547;42.672;23.230;2023-09-08T16:11:26;93671.22;;;20.85;nan
10988;BME280;5547;42.672;23.230;2023-09-08T16:14:27;93671.75;;;20.74;nan
10988;BME280;5547;42.672;23.230;2023-09-08T16:17:27;93669.75;;;20.60;nan
10988;BME280;5547;42.672;23.230;2023-09-08T16:20:28;93604.69;;;20.15;nan
10988;BME280;5547;42.672;23.230;2023-09-08T16:23:29;93662.75;;;20.44;nan
10988;BME280;5547;42.672;23.230;2023-09-08T16:26:29;93669.06;;;20.41;nan
10988;BME280;5547;42.672;23.230;2023-09-08T16:29:29;93637.69;;;20.20;nan
10988;BME280;5547;42.672;23.230;2023-09-08T16:32:30;93664.50;;;20.23;nan